Time;durP1;ratioP1;P1;durP2;ratioP2;P2;SDS_P1;SDS_P2;PMS_P1;PMS_P2;Temp;Humidity;BMP_temperature;BMP_pressure;BME280_temperature;BME280_humidity;BME280_pressure;Samples;Min_cycle;Max_cycle;Signal;HPM_P1;HPM_P2
2023/01/25 00:01:52;;;;;;;17.93;13.07;;;4.90;99.90;;;;;;5054582;28;20201;-54
2023/01/25 00:04:19;;;;;;;16.63;12.73;;;4.90;99.90;;;;;;5054722;28;20233;-54
2023/01/25 00:06:46;;;;;;;16.97;12.50;;;4.80;99.90;;;;;;5054252;28;20206;-54
2023/01/25 00:09:14;;;;;;;18.07;13.47;;;4.90;99.90;;;;;;5054575;28;20209;-54
2023/01/25 00:11:43;;;;;;;18.23;13.30;;;4.90;99.90;;;;;;5054324;28;20226;-54
2023/01/25 00:14:09;;;;;;;20.00;12.77;;;4.90;99.90;;;;;;5054231;28;20616;-54
2023/01/25 00:16:37;;;;;;;19.63;13.07;;;5.00;99.90;;;;;;5054121;28;20627;-54
2023/01/25 00:19:03;;;;;;;17.37;13.00;;;4.90;99.90;;;;;;5054406;28;20218;-54
2023/01/25 00:21:30;;;;;;;21.17;13.17;;;4.90;99.90;;;;;;5054362;28;20228;-54
2023/01/25 00:23:57;;;;;;;17.80;12.73;;;4.90;99.90;;;;;;5053953;28;20283;-56
2023/01/25 00:26:24;;;;;;;18.40;12.03;;;5.00;99.90;;;;;;5054140;28;20623;-56
2023/01/25 00:28:53;;;;;;;18.53;12.90;;;4.90;99.90;;;;;;5054181;28;20225;-55
2023/01/25 00:31:31;;;;;;;19.67;13.07;;;5.00;99.90;;;;;;5054307;28;20205;-55
2023/01/25 00:34:06;;;;;;;19.10;13.53;;;4.90;99.90;;;;;;5054014;28;20758;-55
2023/01/25 00:36:39;;;;;;;19.73;13.90;;;4.80;99.90;;;;;;5053704;28;20209;-55
2023/01/25 00:39:07;;;;;;;18.63;12.87;;;4.60;99.90;;;;;;5053750;28;20221;-55
2023/01/25 00:41:33;;;;;;;18.90;12.90;;;4.50;99.90;;;;;;5053775;28;20692;-56
2023/01/25 00:44:02;;;;;;;18.57;12.97;;;4.50;99.90;;;;;;5053796;28;20230;-55
2023/01/25 00:46:28;;;;;;;19.07;14.17;;;4.50;99.90;;;;;;5053554;28;20202;-55
2023/01/25 00:48:56;;;;;;;20.17;13.80;;;4.50;99.90;;;;;;5053562;28;20677;-56
2023/01/25 00:51:24;;;;;;;18.27;13.13;;;4.60;99.90;;;;;;5053562;28;20545;-56
2023/01/25 00:53:50;;;;;;;19.43;12.73;;;4.60;99.90;;;;;;5053471;28;20225;-56
2023/01/25 00:56:17;;;;;;;19.83;12.87;;;4.50;99.90;;;;;;5053250;28;20676;-55
2023/01/25 00:58:44;;;;;;;20.93;13.27;;;4.50;99.90;;;;;;5053290;28;20825;-55
2023/01/25 01:01:12;;;;;;;18.20;12.30;;;4.50;99.90;;;;;;5053530;28;20210;-56
2023/01/25 01:03:39;;;;;;;17.77;13.10;;;4.50;99.90;;;;;;5053244;28;20229;-56
2023/01/25 01:06:09;;;;;;;19.77;13.00;;;4.40;99.90;;;;;;5053169;28;20212;-55
2023/01/25 01:08:39;;;;;;;19.60;13.97;;;4.50;99.90;;;;;;5052890;28;20208;-55
2023/01/25 01:11:08;;;;;;;19.10;13.70;;;4.40;99.90;;;;;;5053389;28;20216;-55
2023/01/25 01:13:35;;;;;;;17.83;13.23;;;4.50;99.90;;;;;;5053088;28;20232;-55
2023/01/25 01:16:03;;;;;;;19.40;13.73;;;4.50;99.90;;;;;;5053121;28;20206;-55
2023/01/25 01:18:35;;;;;;;20.60;14.20;;;4.60;99.90;;;;;;5052955;28;20212;-55
2023/01/25 01:21:02;;;;;;;19.77;13.97;;;4.60;99.90;;;;;;5052665;28;20731;-55
2023/01/25 01:23:29;;;;;;;20.17;13.67;;;4.70;99.90;;;;;;5052931;28;20233;-55
2023/01/25 01:25:59;;;;;;;19.70;13.93;;;4.80;99.90;;;;;;5052944;28;20201;-55
2023/01/25 01:28:25;;;;;;;19.97;13.90;;;4.80;99.90;;;;;;5052623;28;20209;-55
2023/01/25 01:30:52;;;;;;;19.97;13.33;;;4.80;99.90;;;;;;5052882;28;20205;-56
2023/01/25 01:33:19;;;;;;;19.90;13.60;;;4.80;99.90;;;;;;5052694;28;20235;-55
2023/01/25 01:35:47;;;;;;;17.67;13.47;;;4.70;99.90;;;;;;5052371;28;20693;-55
2023/01/25 01:38:13;;;;;;;20.20;13.17;;;4.70;99.90;;;;;;5052574;28;20278;-55
2023/01/25 01:40:44;;;;;;;20.83;14.23;;;4.70;99.90;;;;;;5052658;28;20232;-55
2023/01/25 01:43:17;;;;;;;20.77;13.17;;;4.70;99.90;;;;;;5052658;28;20210;-54
2023/01/25 01:45:51;;;;;;;17.93;12.93;;;4.70;99.90;;;;;;5052398;28;20213;-55
2023/01/25 01:48:25;;;;;;;19.27;13.53;;;4.60;99.90;;;;;;5052590;28;20189;-56
2023/01/25 01:50:58;;;;;;;18.63;13.43;;;4.60;99.90;;;;;;5052401;28;20573;-55
2023/01/25 01:53:26;;;;;;;20.43;14.27;;;4.60;99.90;;;;;;5052502;28;20240;-56
2023/01/25 01:55:59;;;;;;;17.23;13.33;;;4.70;99.90;;;;;;5051929;28;20205;-55
2023/01/25 01:58:26;;;;;;;19.63;12.93;;;4.60;99.90;;;;;;5052202;28;20271;-56
2023/01/25 02:00:53;;;;;;;18.63;13.33;;;4.70;99.90;;;;;;5052400;28;20233;-55
2023/01/25 02:03:20;;;;;;;19.70;13.53;;;4.70;99.90;;;;;;5052316;28;20213;-55
2023/01/25 02:05:55;;;;;;;20.93;13.57;;;4.80;99.90;;;;;;5052254;28;20201;-55
2023/01/25 02:08:23;;;;;;;18.80;13.37;;;4.70;99.90;;;;;;5051985;28;20201;-56
2023/01/25 02:10:50;;;;;;;18.90;13.70;;;4.80;99.90;;;;;;5052093;28;20213;-55
2023/01/25 02:13:18;;;;;;;16.77;12.50;;;4.80;99.90;;;;;;5052059;28;20669;-55
2023/01/25 02:15:47;;;;;;;17.80;13.10;;;4.80;99.90;;;;;;5052245;28;20212;-55
2023/01/25 02:18:15;;;;;;;18.80;13.07;;;4.80;99.90;;;;;;5051906;28;20619;-55
2023/01/25 02:20:44;;;;;;;17.70;12.77;;;4.80;99.90;;;;;;5052136;28;20236;-55
2023/01/25 02:23:19;;;;;;;18.97;12.90;;;4.70;99.90;;;;;;5051934;28;20213;-56
2023/01/25 02:25:47;;;;;;;17.07;12.13;;;4.70;99.90;;;;;;5052487;28;20470;-55
2023/01/25 02:28:18;;;;;;;15.93;12.43;;;4.70;99.90;;;;;;5051791;28;20201;-56
2023/01/25 02:30:45;;;;;;;17.50;12.50;;;4.70;99.90;;;;;;5052241;28;20205;-55
2023/01/25 02:33:12;;;;;;;15.87;11.73;;;4.80;99.90;;;;;;5052012;28;20209;-56
2023/01/25 02:35:42;;;;;;;15.83;11.77;;;4.80;99.90;;;;;;5051999;28;20213;-55
2023/01/25 02:38:11;;;;;;;18.27;13.40;;;4.90;99.90;;;;;;5051851;28;20213;-55
2023/01/25 02:40:44;;;;;;;16.63;11.67;;;5.00;99.90;;;;;;5051944;28;20250;-55
2023/01/25 02:43:12;;;;;;;15.87;11.90;;;5.00;99.90;;;;;;5051853;28;20220;-56
2023/01/25 02:45:39;;;;;;;18.83;12.27;;;5.10;99.90;;;;;;5051714;28;20213;-56
2023/01/25 02:48:06;;;;;;;15.50;11.80;;;5.10;99.90;;;;;;5051630;28;20288;-55
2023/01/25 02:50:33;;;;;;;16.93;11.90;;;5.20;99.90;;;;;;5051730;28;20202;-55
2023/01/25 02:52:59;;;;;;;16.63;11.43;;;5.20;99.90;;;;;;5051822;28;20210;-56
2023/01/25 02:55:26;;;;;;;17.10;11.57;;;5.20;99.90;;;;;;5051659;28;20210;-55
2023/01/25 02:57:53;;;;;;;17.23;11.27;;;5.20;99.90;;;;;;5051587;28;20213;-56
2023/01/25 03:00:21;;;;;;;15.10;11.07;;;5.20;99.90;;;;;;5051546;28;20296;-56
2023/01/25 03:02:48;;;;;;;15.87;10.77;;;5.20;99.90;;;;;;5051474;28;20255;-56
2023/01/25 03:05:15;;;;;;;14.20;10.20;;;5.30;99.90;;;;;;5051443;28;20228;-55
2023/01/25 03:07:41;;;;;;;12.90;9.93;;;5.30;99.90;;;;;;5051661;28;20336;-56
2023/01/25 03:10:10;;;;;;;15.30;10.43;;;5.30;99.90;;;;;;5055177;28;20213;-55
2023/01/25 03:12:36;;;;;;;15.20;10.07;;;5.30;99.90;;;;;;5055530;28;20210;-55
2023/01/25 03:15:04;;;;;;;18.30;11.20;;;5.30;99.90;;;;;;5055319;28;20225;-55
2023/01/25 03:17:32;;;;;;;14.67;10.07;;;5.30;99.90;;;;;;5054983;28;20585;-55
2023/01/25 03:19:58;;;;;;;15.73;11.17;;;5.30;99.90;;;;;;5055022;28;20225;-55
2023/01/25 03:22:25;;;;;;;13.80;10.03;;;5.30;99.90;;;;;;5055488;28;20585;-56
2023/01/25 03:24:52;;;;;;;12.63;9.40;;;5.30;99.90;;;;;;5055007;28;20283;-56
2023/01/25 03:27:18;;;;;;;15.23;10.43;;;5.30;99.90;;;;;;5055113;28;20210;-56
2023/01/25 03:29:45;;;;;;;13.17;10.03;;;5.30;99.90;;;;;;5055063;28;20673;-55
2023/01/25 03:32:12;;;;;;;12.83;9.07;;;5.40;99.90;;;;;;5054842;28;20672;-56
2023/01/25 03:34:40;;;;;;;11.87;8.60;;;5.40;99.90;;;;;;5055206;28;20226;-56
2023/01/25 03:37:07;;;;;;;11.43;8.77;;;5.40;99.90;;;;;;5054985;28;20209;-55
2023/01/25 03:39:33;;;;;;;10.93;8.23;;;5.40;99.90;;;;;;5054801;28;20673;-55
2023/01/25 03:42:00;;;;;;;10.17;8.13;;;5.30;99.90;;;;;;5055096;28;20218;-56
2023/01/25 03:44:27;;;;;;;10.73;8.20;;;5.20;99.90;;;;;;5055263;28;20229;-56
2023/01/25 03:46:53;;;;;;;9.97;7.67;;;5.20;99.90;;;;;;5054551;28;20259;-55
2023/01/25 03:49:20;;;;;;;10.03;8.33;;;5.30;99.90;;;;;;5054761;28;20205;-55
2023/01/25 03:51:48;;;;;;;11.07;7.80;;;5.30;99.90;;;;;;5054778;28;20205;-56
2023/01/25 03:54:15;;;;;;;9.63;7.67;;;5.30;99.90;;;;;;5054768;28;20625;-56
2023/01/25 03:56:41;;;;;;;9.47;6.90;;;5.40;99.90;;;;;;5054364;28;20558;-56
2023/01/25 03:59:10;;;;;;;10.00;7.13;;;5.30;99.90;;;;;;5054537;28;20212;-56
2023/01/25 04:01:36;;;;;;;10.40;7.83;;;5.20;99.90;;;;;;5054465;28;20225;-56
2023/01/25 04:04:03;;;;;;;10.93;7.90;;;5.10;99.90;;;;;;5054565;28;20251;-56
2023/01/25 04:06:30;;;;;;;10.23;7.80;;;5.10;99.90;;;;;;5054468;28;20205;-56
2023/01/25 04:08:58;;;;;;;10.80;7.33;;;5.10;99.90;;;;;;5054008;28;20688;-56
2023/01/25 04:11:25;;;;;;;11.90;7.73;;;5.10;99.90;;;;;;5054320;28;20209;-56
2023/01/25 04:13:51;;;;;;;11.30;8.33;;;5.10;99.90;;;;;;5054082;28;20237;-56
2023/01/25 04:16:18;;;;;;;10.00;7.70;;;5.10;99.90;;;;;;5054173;28;20542;-56
2023/01/25 04:18:45;;;;;;;10.07;7.43;;;5.10;99.90;;;;;;5053761;28;20210;-56
2023/01/25 04:21:11;;;;;;;12.70;8.77;;;5.10;99.90;;;;;;5054021;28;20236;-56
2023/01/25 04:23:38;;;;;;;11.20;8.10;;;5.10;99.90;;;;;;5054118;28;20237;-55
2023/01/25 04:26:09;;;;;;;11.80;8.07;;;5.00;99.90;;;;;;5053937;28;20217;-56
2023/01/25 04:28:36;;;;;;;10.67;7.90;;;5.10;99.90;;;;;;5053732;28;20296;-54
2023/01/25 04:31:04;;;;;;;13.37;8.57;;;5.10;99.90;;;;;;5054366;28;20213;-54
2023/01/25 04:33:32;;;;;;;11.20;8.13;;;5.10;99.90;;;;;;5054181;28;20221;-55
2023/01/25 04:35:59;;;;;;;11.87;8.47;;;5.20;99.90;;;;;;5053680;28;20201;-54
2023/01/25 04:38:26;;;;;;;12.10;8.80;;;5.20;99.90;;;;;;5053647;28;20209;-54
2023/01/25 04:40:53;;;;;;;12.47;8.47;;;5.30;99.90;;;;;;5053530;28;20704;-54
2023/01/25 04:43:21;;;;;;;10.93;8.30;;;5.40;99.90;;;;;;5053620;28;20237;-54
2023/01/25 04:45:48;;;;;;;11.37;7.83;;;5.40;99.90;;;;;;5053747;28;20216;-54
2023/01/25 04:48:15;;;;;;;11.57;7.93;;;5.40;99.90;;;;;;5053684;28;20208;-54
2023/01/25 04:50:43;;;;;;;10.83;8.13;;;5.30;99.90;;;;;;5054103;28;20209;-54
2023/01/25 04:53:13;;;;;;;11.13;8.23;;;5.30;99.90;;;;;;5053652;28;20213;-55
2023/01/25 04:55:40;;;;;;;10.87;7.63;;;5.20;99.90;;;;;;5053434;28;20225;-54
2023/01/25 04:58:07;;;;;;;12.40;8.77;;;5.30;99.90;;;;;;5053385;28;20213;-54
2023/01/25 05:00:35;;;;;;;8.97;6.90;;;5.40;99.90;;;;;;5053431;28;20233;-54
2023/01/25 05:03:03;;;;;;;10.10;7.23;;;5.40;99.90;;;;;;5053245;28;20271;-54
2023/01/25 05:05:30;;;;;;;9.97;7.10;;;5.30;99.90;;;;;;5053202;28;20709;-54
2023/01/25 05:07:56;;;;;;;11.37;7.83;;;5.30;99.90;;;;;;5052995;28;20220;-54
2023/01/25 05:10:23;;;;;;;11.37;8.10;;;5.20;99.90;;;;;;5053235;28;20202;-54
2023/01/25 05:12:50;;;;;;;9.47;6.90;;;5.10;99.90;;;;;;5052954;28;20579;-54
2023/01/25 05:15:16;;;;;;;8.97;6.73;;;5.10;99.90;;;;;;5052974;28;20732;-54
2023/01/25 05:17:44;;;;;;;8.63;6.40;;;4.90;99.90;;;;;;5052755;28;20677;-54
2023/01/25 05:20:12;;;;;;;8.87;6.07;;;4.80;99.90;;;;;;5053190;28;20209;-54
2023/01/25 05:22:39;;;;;;;7.73;5.93;;;4.80;99.90;;;;;;5052897;28;20263;-54
2023/01/25 05:26:59;;;;;;;8.67;6.30;;;4.60;99.90;;;;;;5052788;28;20241;-54
2023/01/25 05:27:52;;;;;;;9.90;7.17;;;4.50;99.90;;;;;;5052521;28;20206;-54
2023/01/25 05:30:19;;;;;;;9.43;7.03;;;4.50;99.90;;;;;;5052777;28;20198;-55
2023/01/25 05:32:48;;;;;;;10.20;7.10;;;4.50;99.90;;;;;;5052256;28;20580;-54
2023/01/25 05:35:15;;;;;;;8.53;6.10;;;4.60;99.90;;;;;;5052600;28;20312;-54
2023/01/25 05:37:42;;;;;;;9.87;6.73;;;4.60;99.90;;;;;;5052488;28;20640;-54
2023/01/25 05:40:10;;;;;;;10.00;7.23;;;4.60;99.90;;;;;;5052653;28;20209;-54
2023/01/25 05:42:36;;;;;;;9.53;6.77;;;4.60;99.90;;;;;;5052522;28;20219;-54
2023/01/25 05:45:04;;;;;;;9.33;6.83;;;4.60;99.90;;;;;;5052356;28;20232;-54
2023/01/25 05:47:30;;;;;;;9.90;7.07;;;4.60;99.90;;;;;;5052015;28;20677;-54
2023/01/25 05:49:58;;;;;;;9.60;6.73;;;4.50;99.90;;;;;;5052333;28;20255;-54
2023/01/25 05:52:25;;;;;;;8.83;6.53;;;4.50;99.90;;;;;;5052521;28;20206;-54
2023/01/25 05:54:52;;;;;;;9.83;6.97;;;4.50;99.90;;;;;;5052359;28;20237;-54
2023/01/25 05:57:19;;;;;;;11.27;7.63;;;4.60;99.90;;;;;;5052206;28;20590;-54
2023/01/25 05:59:45;;;;;;;9.50;7.23;;;4.60;99.90;;;;;;5052211;28;20263;-54
2023/01/25 06:02:12;;;;;;;10.47;7.60;;;4.60;99.90;;;;;;5052056;28;20574;-54
2023/01/25 06:04:39;;;;;;;10.63;6.70;;;4.60;99.90;;;;;;5052354;28;20236;-54
2023/01/25 06:07:07;;;;;;;9.47;7.10;;;4.60;99.90;;;;;;5052097;28;20601;-56
2023/01/25 06:09:33;;;;;;;9.77;6.97;;;4.70;99.90;;;;;;5052214;28;20213;-54
2023/01/25 06:12:00;;;;;;;12.40;8.80;;;4.70;99.90;;;;;;5052317;28;20205;-54
2023/01/25 06:14:27;;;;;;;8.93;6.67;;;4.80;99.90;;;;;;5051820;28;20225;-54
2023/01/25 06:16:53;;;;;;;9.47;7.27;;;4.90;99.90;;;;;;5051717;28;20608;-54
2023/01/25 06:19:20;;;;;;;9.23;7.20;;;5.00;99.90;;;;;;5052498;28;20209;-54
2023/01/25 06:21:47;;;;;;;9.83;7.13;;;5.00;99.90;;;;;;5052081;28;20233;-54
2023/01/25 06:24:15;;;;;;;10.03;7.10;;;5.00;99.90;;;;;;5051771;28;20234;-54
2023/01/25 06:26:41;;;;;;;8.43;6.40;;;5.10;99.90;;;;;;5052236;28;20506;-56
2023/01/25 06:29:08;;;;;;;10.20;6.60;;;5.00;99.90;;;;;;5051931;28;20213;-54
2023/01/25 06:31:35;;;;;;;9.63;6.57;;;5.00;99.90;;;;;;5051875;28;20677;-54
2023/01/25 06:34:05;;;;;;;9.27;6.30;;;5.00;99.90;;;;;;5052151;28;20287;-54
2023/01/25 06:36:32;;;;;;;8.83;6.87;;;5.00;99.90;;;;;;5051825;28;20580;-55
2023/01/25 06:38:58;;;;;;;9.10;6.63;;;5.10;99.90;;;;;;5051625;28;20212;-55
2023/01/25 06:41:26;;;;;;;9.70;6.67;;;5.10;99.90;;;;;;5051721;28;20225;-55
2023/01/25 06:43:54;;;;;;;10.53;6.97;;;5.10;99.90;;;;;;5055845;28;20229;-55
2023/01/25 06:46:22;;;;;;;9.07;6.40;;;5.10;99.90;;;;;;5055922;28;20205;-55
2023/01/25 06:48:48;;;;;;;8.20;6.30;;;5.10;99.90;;;;;;5055555;28;20213;-55
2023/01/25 06:51:16;;;;;;;8.97;6.57;;;5.10;99.90;;;;;;5056252;28;20205;-55
2023/01/25 06:53:45;;;;;;;9.27;6.53;;;5.10;99.90;;;;;;5055988;28;20225;-55
2023/01/25 06:56:13;;;;;;;10.50;6.90;;;5.10;99.90;;;;;;5056168;28;20213;-57
2023/01/25 06:58:41;;;;;;;10.30;7.03;;;5.10;99.90;;;;;;5055959;28;20210;-53
2023/01/25 07:01:12;;;;;;;9.30;7.27;;;5.10;99.90;;;;;;5055695;28;20574;-55
2023/01/25 07:03:39;;;;;;;10.10;6.90;;;5.20;99.90;;;;;;5056131;28;20287;-55
2023/01/25 07:06:08;;;;;;;9.37;6.83;;;5.20;99.90;;;;;;5055664;28;20205;-55
2023/01/25 07:08:36;;;;;;;9.50;6.87;;;5.10;99.90;;;;;;5055480;28;20213;-55
2023/01/25 07:11:04;;;;;;;9.83;7.13;;;5.20;99.90;;;;;;5056088;28;20210;-55
2023/01/25 07:13:32;;;;;;;9.77;6.63;;;5.20;99.90;;;;;;5055517;28;20230;-56
2023/01/25 07:16:01;;;;;;;8.47;5.93;;;5.30;99.90;;;;;;5055244;28;20673;-55
2023/01/25 07:18:30;;;;;;;9.23;7.00;;;5.30;99.90;;;;;;5055045;28;20205;-55
2023/01/25 07:21:02;;;;;;;10.50;6.83;;;5.30;99.90;;;;;;5055331;28;20209;-55
2023/01/25 07:23:31;;;;;;;11.27;6.90;;;5.30;99.90;;;;;;5054940;28;20233;-55
2023/01/25 07:25:59;;;;;;;10.53;6.73;;;5.30;99.90;;;;;;5055195;28;20240;-55
2023/01/25 07:28:26;;;;;;;8.77;6.17;;;5.30;99.90;;;;;;5054856;28;20205;-55
2023/01/25 07:30:52;;;;;;;9.13;7.03;;;5.30;99.90;;;;;;5054980;28;20237;-55
2023/01/25 07:33:20;;;;;;;8.87;6.43;;;5.30;99.90;;;;;;5055006;28;20629;-55
2023/01/25 07:35:49;;;;;;;9.77;6.70;;;5.30;99.90;;;;;;5054948;28;20495;-55
2023/01/25 07:38:16;;;;;;;9.13;6.87;;;5.40;99.90;;;;;;5054794;28;20210;-55
2023/01/25 07:40:43;;;;;;;9.50;7.07;;;5.40;99.90;;;;;;5055156;28;20274;-56
2023/01/25 07:43:09;;;;;;;8.23;6.57;;;5.30;99.90;;;;;;5054646;28;20665;-56
2023/01/25 07:45:36;;;;;;;10.07;6.93;;;5.20;99.90;;;;;;5054808;28;20209;-55
2023/01/25 07:48:09;;;;;;;8.97;7.07;;;5.10;99.90;;;;;;5055106;28;20220;-55
2023/01/25 07:50:38;;;;;;;10.10;7.13;;;5.10;99.90;;;;;;5054471;28;20206;-55
2023/01/25 07:53:05;;;;;;;10.17;7.40;;;5.10;99.90;;;;;;5054639;28;20624;-55
2023/01/25 07:55:31;;;;;;;10.20;6.57;;;5.10;99.90;;;;;;5053626;28;20208;-55
2023/01/25 07:57:59;;;;;;;10.27;7.33;;;5.10;99.90;;;;;;5054307;28;20213;-55
2023/01/25 08:00:26;;;;;;;9.40;6.97;;;5.10;99.90;;;;;;5054777;28;20323;-55
2023/01/25 08:02:53;;;;;;;9.20;6.90;;;5.10;99.90;;;;;;5054794;28;20581;-56
2023/01/25 08:05:20;;;;;;;9.53;7.20;;;5.00;99.90;;;;;;5054507;28;20596;-56
2023/01/25 08:07:48;;;;;;;10.43;8.30;;;5.10;99.90;;;;;;5051113;28;20517;-55
2023/01/25 08:10:15;;;;;;;11.80;8.03;;;5.10;99.90;;;;;;5053535;28;20727;-58
2023/01/25 08:12:45;;;;;;;9.17;7.23;;;5.20;99.90;;;;;;5073156;28;20200;-55
2023/01/25 08:15:12;;;;;;;9.97;7.80;;;5.30;99.90;;;;;;5074144;28;20229;-53
2023/01/25 08:17:39;;;;;;;8.70;6.60;;;5.30;99.90;;;;;;5073525;28;20671;-54
2023/01/25 08:20:07;;;;;;;8.97;6.90;;;5.40;99.90;;;;;;5074174;28;20201;-54
2023/01/25 08:22:34;;;;;;;10.53;7.60;;;5.40;99.90;;;;;;5075218;28;20640;-56
2023/01/25 08:25:03;;;;;;;9.90;7.33;;;5.40;99.90;;;;;;5074718;28;20245;-57
2023/01/25 08:27:29;;;;;;;11.13;7.93;;;5.40;99.90;;;;;;5073902;28;20205;-58
2023/01/25 08:29:56;;;;;;;9.37;7.10;;;5.50;99.90;;;;;;5074149;28;20587;-58
2023/01/25 08:32:23;;;;;;;9.03;7.17;;;5.50;99.90;;;;;;5068253;28;20201;-57
2023/01/25 08:34:49;;;;;;;9.93;7.50;;;5.60;99.90;;;;;;5046321;28;20224;-57
2023/01/25 08:37:16;;;;;;;10.30;7.47;;;5.70;99.90;;;;;;5052594;28;20209;-59
2023/01/25 08:39:43;;;;;;;10.33;7.73;;;5.70;99.90;;;;;;5053584;28;20593;-55
2023/01/25 08:42:11;;;;;;;12.57;8.40;;;5.70;99.90;;;;;;5052837;28;20233;-55
2023/01/25 08:44:38;;;;;;;12.93;8.17;;;5.70;99.90;;;;;;5052450;28;20230;-55
2023/01/25 08:47:05;;;;;;;12.63;7.90;;;5.60;99.90;;;;;;5053014;28;20214;-55
2023/01/25 08:49:33;;;;;;;10.57;8.00;;;5.60;99.90;;;;;;5052536;28;20241;-55
2023/01/25 08:52:00;;;;;;;12.13;8.70;;;5.60;99.90;;;;;;5052975;28;20231;-55
2023/01/25 08:54:26;;;;;;;9.70;8.00;;;5.60;99.90;;;;;;5052745;28;20229;-60
2023/01/25 08:56:53;;;;;;;10.43;7.33;;;5.50;99.90;;;;;;5052684;28;20201;-57
2023/01/25 08:59:22;;;;;;;9.10;7.07;;;5.60;99.90;;;;;;5052744;28;20585;-56
2023/01/25 09:01:48;;;;;;;8.90;6.70;;;5.50;99.90;;;;;;5052635;28;20225;-56
2023/01/25 09:04:15;;;;;;;9.90;7.67;;;5.50;99.90;;;;;;5052851;28;20226;-57
2023/01/25 09:06:42;;;;;;;10.00;7.50;;;5.40;99.90;;;;;;5052615;28;20247;-56
2023/01/25 09:09:09;;;;;;;9.47;7.33;;;5.30;99.90;;;;;;5052079;28;20213;-56
2023/01/25 09:11:36;;;;;;;9.93;7.50;;;5.30;99.90;;;;;;5052407;28;20208;-56
2023/01/25 09:14:03;;;;;;;9.87;7.60;;;5.30;99.90;;;;;;5051787;28;20225;-56
2023/01/25 09:16:32;;;;;;;10.53;7.83;;;5.40;99.90;;;;;;5052527;28;20232;-56
2023/01/25 09:19:00;;;;;;;9.63;8.03;;;5.50;99.90;;;;;;5051927;28;20209;-55
2023/01/25 09:21:28;;;;;;;12.90;8.27;;;5.60;99.90;;;;;;5052146;28;20228;-55
2023/01/25 09:23:55;;;;;;;12.10;8.47;;;5.70;99.90;;;;;;5051773;28;20241;-56
2023/01/25 09:26:21;;;;;;;13.47;9.17;;;5.70;99.90;;;;;;5051744;28;20587;-55
2023/01/25 09:28:50;;;;;;;12.07;8.70;;;5.60;99.90;;;;;;5052087;28;20220;-56
2023/01/25 09:31:18;;;;;;;11.00;8.50;;;5.70;99.90;;;;;;5052674;28;20212;-55
2023/01/25 09:33:46;;;;;;;10.53;8.50;;;5.80;99.90;;;;;;5052064;28;20236;-55
2023/01/25 09:36:13;;;;;;;11.87;9.10;;;5.80;99.90;;;;;;5051976;28;20647;-56
2023/01/25 09:38:40;;;;;;;12.43;9.03;;;5.80;99.90;;;;;;5051243;28;20201;-56
2023/01/25 09:41:16;;;;;;;10.87;8.60;;;5.70;99.90;;;;;;5051636;28;20213;-55
2023/01/25 09:43:59;;;;;;;11.83;8.60;;;5.70;99.90;;;;;;5051725;28;20232;-55
2023/01/25 09:46:34;;;;;;;13.30;9.63;;;5.70;99.90;;;;;;5051860;28;20244;-56
2023/01/25 09:49:09;;;;;;;13.47;8.93;;;5.70;99.90;;;;;;5051411;28;20221;-56
2023/01/25 09:51:52;;;;;;;12.80;8.43;;;5.70;99.90;;;;;;5051252;28;20209;-57
2023/01/25 09:54:20;;;;;;;11.17;8.10;;;5.70;99.90;;;;;;5051995;28;20251;-59
2023/01/25 09:56:50;;;;;;;13.37;9.50;;;5.70;99.90;;;;;;5051817;28;20580;-60
2023/01/25 09:59:22;;;;;;;12.40;9.10;;;5.80;99.90;;;;;;5051715;28;20217;-59
2023/01/25 10:01:53;;;;;;;12.70;9.30;;;5.70;99.90;;;;;;5052010;28;20237;-59
2023/01/25 10:04:24;;;;;;;12.97;9.17;;;5.60;99.90;;;;;;5052513;28;20221;-57
2023/01/25 10:06:53;;;;;;;13.43;9.87;;;5.60;99.90;;;;;;5052003;28;20209;-59
2023/01/25 10:09:31;;;;;;;12.57;9.30;;;5.50;99.90;;;;;;5051454;28;20209;-58
2023/01/25 10:12:04;;;;;;;13.20;9.30;;;5.60;99.90;;;;;;5051597;28;20207;-58
2023/01/25 10:14:34;;;;;;;12.03;8.87;;;5.80;99.90;;;;;;5050956;28;20262;-59
2023/01/25 10:17:07;;;;;;;11.60;8.83;;;5.80;99.90;;;;;;5051030;28;20237;-59
2023/01/25 10:19:48;;;;;;;13.37;9.10;;;5.80;99.90;;;;;;5051140;28;20681;-59
2023/01/25 10:22:18;;;;;;;12.33;9.23;;;5.90;99.90;;;;;;5051081;28;20232;-59
2023/01/25 10:25:00;;;;;;;13.07;9.10;;;5.90;99.90;;;;;;5051056;28;20248;-60
2023/01/25 10:27:37;;;;;;;12.87;8.97;;;6.00;99.90;;;;;;5050632;28;20205;-60
2023/01/25 10:30:20;;;;;;;13.93;9.67;;;5.90;99.90;;;;;;5049921;28;20228;-61
2023/01/25 10:32:48;;;;;;;12.57;9.27;;;5.90;99.90;;;;;;5051397;28;20284;-58
2023/01/25 10:35:18;;;;;;;10.73;8.63;;;5.90;99.90;;;;;;5050868;28;20229;-59
2023/01/25 10:37:45;;;;;;;12.93;9.67;;;5.90;99.90;;;;;;5051298;28;20266;-59
2023/01/25 10:40:17;;;;;;;14.63;10.20;;;6.00;99.90;;;;;;5051497;28;20209;-59
2023/01/25 10:42:49;;;;;;;11.77;9.37;;;6.00;99.90;;;;;;5051656;28;20221;-64
2023/01/25 10:45:17;;;;;;;12.03;9.63;;;6.00;99.90;;;;;;5052752;28;20236;-59
2023/01/25 10:47:48;;;;;;;13.27;9.50;;;6.10;99.90;;;;;;5052130;28;20296;-61
2023/01/25 10:50:45;;;;;;;12.57;10.37;;;6.20;99.90;;;;;;5052525;28;20206;-60
2023/01/25 10:53:26;;;;;;;15.03;9.80;;;6.40;99.90;;;;;;5052123;28;20279;-62
2023/01/25 10:56:19;;;;;;;12.70;9.50;;;6.50;99.90;;;;;;5052202;28;20201;-64
2023/01/25 10:58:47;;;;;;;12.00;8.83;;;6.50;99.90;;;;;;5048515;28;20583;-60
2023/01/25 11:01:26;;;;;;;13.10;9.23;;;6.50;99.90;;;;;;5051642;28;20213;-59
2023/01/25 11:03:53;;;;;;;13.43;9.73;;;6.30;99.90;;;;;;5051312;28;20230;-59
2023/01/25 11:06:32;;;;;;;12.53;9.43;;;6.20;99.90;;;;;;5052034;28;20201;-60
2023/01/25 11:08:59;;;;;;;12.07;8.80;;;6.10;99.90;;;;;;5052413;28;20212;-59
2023/01/25 11:11:31;;;;;;;12.10;9.40;;;6.10;99.90;;;;;;5052050;28;20212;-60
2023/01/25 11:13:58;;;;;;;12.93;9.23;;;6.00;99.90;;;;;;5052867;28;20222;-60
2023/01/25 11:16:31;;;;;;;14.50;9.90;;;6.00;99.90;;;;;;5051098;28;20202;-60
2023/01/25 11:18:59;;;;;;;13.00;9.20;;;6.00;99.90;;;;;;5052253;28;20217;-61
2023/01/25 11:21:29;;;;;;;13.23;9.43;;;5.90;99.90;;;;;;5051240;28;20216;-59
2023/01/25 11:24:01;;;;;;;12.27;9.37;;;5.80;99.90;;;;;;5051915;28;20630;-63
2023/01/25 11:26:29;;;;;;;12.60;9.23;;;5.70;99.90;;;;;;5052860;28;20217;-64
2023/01/25 11:29:10;;;;;;;13.73;9.30;;;5.60;99.90;;;;;;5050957;28;20206;-64
2023/01/25 11:31:40;;;;;;;15.30;10.07;;;5.50;99.90;;;;;;5055055;28;21173;-60
2023/01/25 11:34:10;;;;;;;15.57;9.77;;;5.50;99.90;;;;;;5055097;28;20225;-59
2023/01/25 11:36:51;;;;;;;14.20;10.17;;;5.60;99.90;;;;;;5055263;28;20237;-60
2023/01/25 11:39:27;;;;;;;15.80;10.87;;;5.50;99.90;;;;;;5054817;28;20229;-58
2023/01/25 11:42:05;;;;;;;12.73;9.33;;;5.50;99.90;;;;;;5055113;28;20593;-60
2023/01/25 11:45:19;;;;;;;13.57;9.70;;;5.40;99.90;;;;;;5054379;28;20222;-57
2023/01/25 11:48:02;;;;;;;16.33;10.30;;;5.30;99.90;;;;;;5054366;28;20224;-58
2023/01/25 11:50:37;;;;;;;14.70;10.77;;;5.20;99.90;;;;;;5054384;28;20202;-58
2023/01/25 11:53:31;;;;;;;14.93;10.80;;;5.30;99.90;;;;;;5054359;28;20201;-59
2023/01/25 11:56:04;;;;;;;14.30;10.20;;;5.50;99.90;;;;;;5051556;28;20206;-59
2023/01/25 11:58:50;;;;;;;14.17;10.37;;;5.70;99.90;;;;;;5053903;28;20210;-60
2023/01/25 12:01:25;;;;;;;15.40;10.73;;;5.80;99.90;;;;;;5054717;28;20205;-61
2023/01/25 12:04:37;;;;;;;16.40;10.57;;;5.90;99.90;;;;;;5053394;28;20232;-64
2023/01/25 12:07:05;;;;;;;15.17;9.97;;;5.90;99.90;;;;;;5052832;28;20209;-60
2023/01/25 12:09:53;;;;;;;14.60;10.10;;;5.90;99.90;;;;;;5053486;28;20700;-60
2023/01/25 12:12:32;;;;;;;13.73;10.33;;;6.00;99.90;;;;;;5052655;28;20214;-59
2023/01/25 12:15:12;;;;;;;12.77;9.77;;;5.90;99.90;;;;;;5054370;28;20959;-60
2023/01/25 12:17:59;;;;;;;12.93;9.70;;;5.80;99.90;;;;;;5054075;28;20205;-60
2023/01/25 12:20:43;;;;;;;18.00;10.60;;;5.70;99.90;;;;;;5053280;28;20212;-61
2023/01/25 12:23:23;;;;;;;15.07;10.40;;;5.50;99.90;;;;;;5053388;28;20229;-59
2023/01/25 12:26:10;;;;;;;14.20;10.37;;;5.60;99.90;;;;;;5053064;28;20202;-59
2023/01/25 12:28:43;;;;;;;15.13;10.27;;;5.50;99.90;;;;;;5053457;28;20212;-62
2023/01/25 12:31:16;;;;;;;16.17;11.10;;;5.50;99.90;;;;;;5053932;28;20214;-59
2023/01/25 12:33:47;;;;;;;17.13;10.67;;;5.50;99.90;;;;;;5053348;28;20229;-61
2023/01/25 12:36:17;;;;;;;14.83;10.10;;;5.60;99.90;;;;;;5053076;28;20704;-58
2023/01/25 12:38:52;;;;;;;14.50;10.20;;;5.60;99.90;;;;;;5053106;28;20212;-61
2023/01/25 12:41:30;;;;;;;15.53;10.30;;;5.70;99.90;;;;;;5052163;28;20664;-62
2023/01/25 12:44:06;;;;;;;14.27;10.20;;;5.80;99.90;;;;;;5052801;28;20252;-60
2023/01/25 12:46:40;;;;;;;14.00;10.10;;;5.90;99.90;;;;;;5052057;28;20213;-59
2023/01/25 12:49:19;;;;;;;14.93;11.13;;;5.90;99.90;;;;;;5051876;28;20266;-57
2023/01/25 12:51:47;;;;;;;13.23;10.30;;;5.90;99.90;;;;;;5051648;28;20206;-58
2023/01/25 12:54:20;;;;;;;17.47;12.17;;;5.90;99.90;;;;;;5052020;28;20298;-63
2023/01/25 12:56:57;;;;;;;13.60;9.90;;;5.90;99.90;;;;;;5052554;28;20685;-59
2023/01/25 12:59:32;;;;;;;14.03;10.30;;;6.00;99.90;;;;;;5052984;28;20220;-60